Terminal Aerodrome Forecast
Issued by NWS

Home | Current Version | Previous Version | Text Only | Print | Product List | Glossary On
Versions: 1 2 3 4 5 6 7 8 9 10 11 12 13 14 15 16 17 18 19 20 21 22 23 24 25 26
000
FTUS44 KHGX 241033 AAD
TAFCXO
TAF AMD
KCXO 241033Z 2411/2506 19004KT 3SM BR BKN002
     FM241130 VRB05KT 3SM BR VCTS BKN015CB
     FM241200 VRB10G20KT 5SM TSRA BKN015CB
     FM241245 06007KT 6SM -TSRA BKN025CB
     FM241500 09005KT P6SM VCTS BKN025CB BKN250
     FM241800 04005KT P6SM VCTS BKN040CB BKN250
     FM250000 07005KT P6SM BKN250=

USA.gov is the U.S. government's official web portal to all federal, state and local government web resources and services.